createdAt,value
2017-05-04T00:00:41.900Z,0
2017-05-04T00:01:50.858Z,0
2017-05-04T00:02:59.815Z,0
2017-05-04T00:04:09.021Z,0
2017-05-04T00:05:17.978Z,0
2017-05-04T00:06:26.940Z,0
2017-05-04T00:07:35.898Z,0
2017-05-04T00:08:44.852Z,0
2017-05-04T00:09:54.148Z,0
2017-05-04T00:11:03.100Z,0
2017-05-04T00:12:12.056Z,0
2017-05-04T00:13:21.013Z,0
2017-05-04T00:14:29.974Z,0
2017-05-04T00:15:39.181Z,0
2017-05-04T00:16:48.138Z,0
2017-05-04T00:17:57.093Z,0
2017-05-04T00:19:06.374Z,0
2017-05-04T00:20:15.331Z,0
2017-05-04T00:21:24.628Z,0
2017-05-04T00:22:33.667Z,0
2017-05-04T00:23:42.624Z,0
2017-05-04T00:24:51.577Z,0
2017-05-04T00:26:00.539Z,0
2017-05-04T00:27:10.073Z,0
2017-05-04T00:28:19.356Z,0
2017-05-04T00:29:28.319Z,0
2017-05-04T00:30:37.280Z,0
2017-05-04T00:31:46.238Z,0
2017-05-04T00:32:55.451Z,0
2017-05-04T00:34:04.504Z,0
2017-05-04T00:35:13.463Z,0
2017-05-04T00:36:22.420Z,0
2017-05-04T00:37:31.462Z,0
2017-05-04T00:38:40.672Z,0
2017-05-04T00:39:49.714Z,0
2017-05-04T00:40:58.667Z,0
2017-05-04T00:42:07.618Z,0
2017-05-04T00:43:16.578Z,0
2017-05-04T00:44:25.838Z,0
2017-05-04T00:45:35.116Z,0
2017-05-04T00:46:44.073Z,0
2017-05-04T00:47:53.033Z,0
2017-05-04T00:49:01.987Z,0
2017-05-04T00:50:11.188Z,0
2017-05-04T00:51:20.140Z,0
2017-05-04T00:52:29.094Z,0
2017-05-04T00:53:38.052Z,0
2017-05-04T00:54:47.008Z,0
2017-05-04T00:55:56.219Z,0
2017-05-04T00:57:05.173Z,0
2017-05-04T00:58:14.212Z,0
2017-05-04T00:59:23.166Z,0
2017-05-04T01:00:32.117Z,0
2017-05-04T01:01:41.325Z,0
2017-05-04T01:02:50.277Z,0
2017-05-04T01:03:59.256Z,0
2017-05-04T01:05:08.213Z,0
2017-05-04T01:06:17.253Z,0
2017-05-04T01:07:26.456Z,0
2017-05-04T01:08:35.414Z,0
2017-05-04T01:09:44.371Z,0
2017-05-04T01:10:53.324Z,0
2017-05-04T01:12:02.283Z,0
2017-05-04T01:13:11.490Z,0
2017-05-04T01:14:20.445Z,0
2017-05-04T01:15:29.397Z,0
2017-05-04T01:16:38.691Z,0
2017-05-04T01:17:47.657Z,0
2017-05-04T01:18:56.867Z,0
2017-05-04T01:20:05.827Z,0
2017-05-04T01:21:14.781Z,0
2017-05-04T01:22:23.820Z,0
2017-05-04T01:23:32.782Z,0
2017-05-04T01:24:41.982Z,0
2017-05-04T01:25:50.939Z,0
2017-05-04T01:26:59.898Z,0
2017-05-04T01:28:08.855Z,0
2017-05-04T01:29:17.811Z,0
2017-05-04T01:30:27.021Z,0
2017-05-04T01:31:35.978Z,0
2017-05-04T01:32:44.937Z,0
2017-05-04T01:33:53.894Z,0
2017-05-04T01:35:02.849Z,0
2017-05-04T01:36:12.055Z,0
2017-05-04T01:37:21.010Z,0
2017-05-04T01:38:29.978Z,0
2017-05-04T01:39:38.936Z,0
2017-05-04T01:40:47.892Z,0
2017-05-04T01:41:57.100Z,0
2017-05-04T01:43:06.059Z,0
2017-05-04T01:44:15.015Z,0
2017-05-04T01:45:23.969Z,0
2017-05-04T01:46:32.923Z,0
2017-05-04T01:47:42.145Z,0
2017-05-04T01:48:51.101Z,0
2017-05-04T01:50:00.384Z,0
2017-05-04T01:51:09.424Z,0
2017-05-04T01:52:18.379Z,0
2017-05-04T01:53:27.961Z,0
2017-05-04T01:54:37.004Z,0
2017-05-04T01:55:46.044Z,0
2017-05-04T01:56:55.080Z,0
2017-05-04T01:58:04.356Z,0
2017-05-04T01:59:13.567Z,0
2017-05-04T02:00:22.520Z,0
2017-05-04T02:01:31.476Z,0
2017-05-04T02:02:40.520Z,0
2017-05-04T02:03:49.563Z,0
2017-05-04T02:04:58.775Z,0
2017-05-04T02:06:07.727Z,0
2017-05-04T02:07:16.683Z,0
2017-05-04T02:08:26.051Z,0
2017-05-04T02:09:35.011Z,0
2017-05-04T02:10:44.216Z,0
2017-05-04T02:11:53.257Z,0
2017-05-04T02:13:02.214Z,0
2017-05-04T02:14:11.267Z,0
2017-05-04T02:15:20.230Z,0
2017-05-04T02:16:29.522Z,0
2017-05-04T02:17:38.480Z,0
2017-05-04T02:18:47.523Z,0
2017-05-04T02:19:56.564Z,0
2017-05-04T02:21:05.523Z,0
2017-05-04T02:22:14.730Z,0
2017-05-04T02:23:23.770Z,0
2017-05-04T02:24:32.724Z,0
2017-05-04T02:25:41.679Z,0
2017-05-04T02:26:50.959Z,0
2017-05-04T02:28:00.482Z,0
2017-05-04T02:29:09.439Z,0
2017-05-04T02:30:18.399Z,0
2017-05-04T02:31:27.354Z,0
2017-05-04T02:32:36.630Z,0
2017-05-04T02:33:45.838Z,0
2017-05-04T02:34:54.885Z,0
2017-05-04T02:36:03.841Z,0
2017-05-04T02:37:12.794Z,0
2017-05-04T02:38:21.779Z,0
2017-05-04T02:39:30.985Z,0
2017-05-04T02:40:39.941Z,0
2017-05-04T02:41:48.992Z,0
2017-05-04T02:42:57.951Z,0
2017-05-04T02:44:06.907Z,0
2017-05-04T02:45:16.112Z,0
2017-05-04T02:46:25.069Z,0
2017-05-04T02:47:34.028Z,0
2017-05-04T02:48:43.310Z,0
2017-05-04T02:49:52.268Z,0
2017-05-04T02:51:01.560Z,0
2017-05-04T02:52:10.511Z,0
2017-05-04T02:53:19.783Z,0
2017-05-04T02:54:28.733Z,0
2017-05-04T02:55:37.772Z,0
2017-05-04T02:56:47.064Z,0
2017-05-04T02:57:56.017Z,0
2017-05-04T02:59:04.969Z,0
2017-05-04T03:00:13.919Z,0
2017-05-04T03:01:22.876Z,0
2017-05-04T03:02:32.110Z,0
2017-05-04T03:03:41.098Z,0
2017-05-04T03:04:50.378Z,0
2017-05-04T03:05:59.333Z,0
2017-05-04T03:07:08.287Z,0
2017-05-04T03:08:17.814Z,0
2017-05-04T03:09:26.801Z,0
2017-05-04T03:10:35.925Z,0
2017-05-04T03:11:44.889Z,0
2017-05-04T03:12:54.261Z,0
2017-05-04T03:14:03.482Z,0
2017-05-04T03:15:12.434Z,0
2017-05-04T03:16:21.384Z,0
2017-05-04T03:17:30.335Z,0
2017-05-04T03:18:39.285Z,0
2017-05-04T03:19:48.538Z,0
2017-05-04T03:20:57.498Z,0
2017-05-04T03:22:06.450Z,0
2017-05-04T03:23:15.403Z,0
2017-05-04T03:24:24.358Z,0
2017-05-04T03:25:33.612Z,0
2017-05-04T03:26:42.572Z,0
2017-05-04T03:27:51.531Z,0
2017-05-04T03:29:00.485Z,0
2017-05-04T03:30:09.443Z,0
2017-05-04T03:31:18.645Z,0
2017-05-04T03:32:27.595Z,0
2017-05-04T03:33:36.882Z,0
2017-05-04T03:34:45.919Z,0
2017-05-04T03:35:54.868Z,0
2017-05-04T03:37:04.119Z,0
2017-05-04T03:38:13.073Z,0
2017-05-04T03:39:22.441Z,0
2017-05-04T03:40:31.718Z,0
2017-05-04T03:41:40.767Z,0
2017-05-04T03:42:50.022Z,0
2017-05-04T03:43:58.978Z,0
2017-05-04T03:45:07.931Z,0
2017-05-04T03:46:16.885Z,0
2017-05-04T03:47:25.927Z,0
2017-05-04T03:48:35.185Z,0
2017-05-04T03:49:44.149Z,0
2017-05-04T03:50:53.109Z,0
2017-05-04T03:52:02.061Z,0
2017-05-04T03:53:11.022Z,0
2017-05-04T03:54:20.273Z,0
2017-05-04T03:55:29.228Z,0
2017-05-04T03:56:38.183Z,0
2017-05-04T03:57:47.137Z,0
2017-05-04T03:58:56.174Z,0
2017-05-04T04:00:05.517Z,0
2017-05-04T04:01:14.559Z,0
2017-05-04T04:02:23.600Z,0
2017-05-04T04:03:32.555Z,0
2017-05-04T04:04:41.513Z,0
2017-05-04T04:05:50.880Z,0
2017-05-04T04:06:59.837Z,0
2017-05-04T04:08:08.792Z,0
2017-05-04T04:09:17.750Z,0
2017-05-04T04:10:26.705Z,0
2017-05-04T04:11:35.911Z,0
2017-05-04T04:12:44.864Z,0
2017-05-04T04:13:53.905Z,0
2017-05-04T04:15:02.855Z,0
2017-05-04T04:16:11.807Z,0
2017-05-04T04:17:21.057Z,0
2017-05-04T04:18:30.012Z,0
2017-05-04T04:19:38.962Z,0
2017-05-04T04:20:48.004Z,0
2017-05-04T04:21:56.957Z,5
2017-05-04T04:23:06.168Z,5
2017-05-04T04:24:15.124Z,5
2017-05-04T04:25:24.080Z,5
2017-05-04T04:26:33.033Z,5
2017-05-04T04:27:42.170Z,5
2017-05-04T04:28:51.433Z,5
2017-05-04T04:30:00.383Z,10
2017-05-04T04:31:10.008Z,10
2017-05-04T04:32:18.961Z,10
2017-05-04T04:33:27.924Z,10
2017-05-04T04:34:37.173Z,10
2017-05-04T04:35:46.127Z,5
2017-05-04T04:36:55.074Z,10
2017-05-04T04:38:04.022Z,10
2017-05-04T04:39:12.974Z,10
2017-05-04T04:40:22.228Z,10
2017-05-04T04:41:31.273Z,10
2017-05-04T04:42:40.239Z,15
2017-05-04T04:43:49.199Z,15
2017-05-04T04:44:58.395Z,15
2017-05-04T04:46:07.840Z,15
2017-05-04T04:47:16.917Z,15
2017-05-04T04:48:26.271Z,15
2017-05-04T04:49:35.262Z,15
2017-05-04T04:50:44.255Z,15
2017-05-04T04:51:53.477Z,15
2017-05-04T04:53:02.513Z,15
2017-05-04T04:54:11.521Z,15
2017-05-04T04:55:20.651Z,15
2017-05-04T04:56:29.608Z,15
2017-05-04T04:57:39.105Z,15
2017-05-04T04:58:48.553Z,15
2017-05-04T04:59:58.542Z,15
2017-05-04T05:01:08.082Z,15
2017-05-04T05:02:17.985Z,15
2017-05-04T05:03:27.306Z,15
2017-05-04T05:04:36.264Z,15
2017-05-04T05:05:45.238Z,15
2017-05-04T05:06:54.346Z,15
2017-05-04T05:08:03.341Z,15
2017-05-04T05:09:12.678Z,15
2017-05-04T05:10:21.630Z,15
2017-05-04T05:11:30.821Z,15
2017-05-04T05:12:39.811Z,15
2017-05-04T05:13:48.826Z,15
2017-05-04T05:14:58.222Z,15
2017-05-04T05:16:07.502Z,15
2017-05-04T05:17:16.607Z,15
2017-05-04T05:18:25.633Z,15
2017-05-04T05:19:34.741Z,15
2017-05-04T05:20:43.997Z,15
2017-05-04T05:21:53.581Z,20
2017-05-04T05:23:02.769Z,20
2017-05-04T05:24:12.019Z,20
2017-05-04T05:25:21.058Z,20
2017-05-04T05:26:30.834Z,15
2017-05-04T05:27:40.018Z,15
2017-05-04T05:28:49.117Z,15
2017-05-04T05:29:58.229Z,15
2017-05-04T05:31:07.330Z,20
2017-05-04T05:32:16.796Z,20
2017-05-04T05:33:25.867Z,20
2017-05-04T05:34:35.141Z,25
2017-05-04T05:35:44.292Z,25
2017-05-04T05:36:53.249Z,30
2017-05-04T05:38:02.509Z,30
2017-05-04T05:39:11.534Z,25
2017-05-04T05:40:20.568Z,25
2017-05-04T05:41:29.519Z,25
2017-05-04T05:42:38.905Z,20
2017-05-04T05:43:48.208Z,15
2017-05-04T05:44:57.284Z,15
2017-05-04T05:46:06.391Z,15
2017-05-04T05:47:15.347Z,15
2017-05-04T05:48:24.317Z,15
2017-05-04T05:49:33.544Z,15
2017-05-04T05:50:42.631Z,15
2017-05-04T05:51:51.806Z,15
2017-05-04T05:53:01.090Z,15
2017-05-04T05:54:10.049Z,15
2017-05-04T05:55:19.536Z,15
2017-05-04T05:56:28.564Z,15
2017-05-04T05:57:37.599Z,20
2017-05-04T05:58:47.477Z,20
2017-05-04T05:59:56.730Z,20
2017-05-04T06:01:06.083Z,20
2017-05-04T06:02:15.242Z,20
2017-05-04T06:03:24.612Z,20
2017-05-04T06:04:33.791Z,15
2017-05-04T06:05:43.607Z,15
2017-05-04T06:06:52.955Z,15
2017-05-04T06:08:02.022Z,20
2017-05-04T06:09:11.090Z,25
2017-05-04T06:10:20.134Z,30
2017-05-04T06:11:29.234Z,30
2017-05-04T06:12:38.722Z,35
2017-05-04T06:13:47.809Z,35
2017-05-04T06:14:56.999Z,35
2017-05-04T06:16:06.309Z,40
2017-05-04T06:17:15.478Z,40
2017-05-04T06:18:24.932Z,40
2017-05-04T06:19:34.142Z,35
2017-05-04T06:20:43.304Z,35
2017-05-04T06:21:53.005Z,30
2017-05-04T06:23:01.958Z,30
2017-05-04T06:24:11.287Z,35
2017-05-04T06:25:20.333Z,40
2017-05-04T06:26:29.438Z,45
2017-05-04T06:27:38.576Z,50
2017-05-04T06:28:48.044Z,50
2017-05-04T06:29:57.329Z,40
2017-05-04T06:31:06.421Z,35
2017-05-04T06:32:15.437Z,30
2017-05-04T06:33:24.479Z,30
2017-05-04T06:34:33.494Z,30
2017-05-04T06:35:42.701Z,30
2017-05-04T06:36:51.677Z,25
2017-05-04T06:38:01.256Z,25
2017-05-04T06:39:10.208Z,30
2017-05-04T06:40:19.222Z,30
2017-05-04T06:41:28.525Z,30
2017-05-04T06:42:38.067Z,30
2017-05-04T06:43:47.303Z,35
2017-05-04T06:44:56.312Z,35
2017-05-04T06:46:05.507Z,40
2017-05-04T06:47:14.987Z,40
2017-05-04T06:48:24.002Z,40
2017-05-04T06:49:32.959Z,40
2017-05-04T06:50:42.076Z,45
2017-05-04T06:51:51.036Z,45
2017-05-04T06:53:00.384Z,50
2017-05-04T06:54:09.555Z,50
2017-05-04T06:55:18.607Z,45
2017-05-04T06:56:27.828Z,45
2017-05-04T06:57:36.783Z,45
2017-05-04T06:58:46.092Z,50
2017-05-04T06:59:55.043Z,50
2017-05-04T07:01:04.087Z,45
2017-05-04T07:02:13.046Z,50
2017-05-04T07:03:22.002Z,70
2017-05-04T07:04:31.255Z,75
2017-05-04T07:05:40.211Z,80
2017-05-04T07:06:49.161Z,80
2017-05-04T07:07:58.210Z,85
2017-05-04T07:09:07.164Z,80
2017-05-04T07:10:16.419Z,80
2017-05-04T07:11:25.460Z,75
2017-05-04T07:12:34.435Z,65
2017-05-04T07:13:43.391Z,65
2017-05-04T07:14:52.453Z,65
2017-05-04T07:16:01.741Z,55
2017-05-04T07:17:10.705Z,45
2017-05-04T07:18:19.742Z,50
2017-05-04T07:19:29.619Z,55
2017-05-04T07:20:39.000Z,55
2017-05-04T07:21:48.223Z,60
2017-05-04T07:22:57.265Z,60
2017-05-04T07:24:06.743Z,60
2017-05-04T07:25:15.693Z,60
2017-05-04T07:26:24.641Z,65
2017-05-04T07:27:33.898Z,65
2017-05-04T07:28:43.263Z,60
2017-05-04T07:29:52.294Z,60
2017-05-04T07:31:01.241Z,55
2017-05-04T07:32:10.312Z,50
2017-05-04T07:33:19.617Z,50
2017-05-04T07:34:28.572Z,50
2017-05-04T07:35:37.524Z,50
2017-05-04T07:36:46.476Z,50
2017-05-04T07:37:55.513Z,50
2017-05-04T07:39:05.029Z,50
2017-05-04T07:40:14.008Z,40
2017-05-04T07:41:23.052Z,40
2017-05-04T07:42:32.165Z,40
2017-05-04T07:43:41.255Z,35
2017-05-04T07:44:50.541Z,35
2017-05-04T07:45:59.531Z,35
2017-05-04T07:47:08.502Z,40
2017-05-04T07:48:18.018Z,40
2017-05-04T07:49:27.107Z,45
2017-05-04T07:50:36.414Z,45
2017-05-04T07:51:45.622Z,45
2017-05-04T07:52:54.627Z,40
2017-05-04T07:54:03.589Z,40
2017-05-04T07:55:12.556Z,40
2017-05-04T07:56:21.814Z,40
2017-05-04T07:57:30.872Z,45
2017-05-04T07:58:41.655Z,45
2017-05-04T07:59:53.940Z,50
2017-05-04T08:01:06.174Z,50
2017-05-04T08:02:19.589Z,55
2017-05-04T08:03:31.891Z,60
2017-05-04T08:04:44.276Z,55
2017-05-04T08:05:56.489Z,60
2017-05-04T08:07:05.760Z,60
2017-05-04T08:08:15.013Z,50
2017-05-04T08:09:23.960Z,50
2017-05-04T08:10:33.281Z,50
2017-05-04T08:11:42.309Z,50
2017-05-04T08:12:51.412Z,50
2017-05-04T08:14:00.746Z,55
2017-05-04T08:15:09.928Z,50
2017-05-04T08:16:18.970Z,55
2017-05-04T08:17:27.980Z,60
2017-05-04T08:18:37.048Z,70
2017-05-04T08:19:46.454Z,65
2017-05-04T08:20:55.553Z,60
2017-05-04T08:22:04.574Z,60
2017-05-04T08:23:13.582Z,65
2017-05-04T08:24:22.615Z,65
2017-05-04T08:25:31.958Z,70
2017-05-04T08:26:40.997Z,65
2017-05-04T08:27:50.056Z,65
2017-05-04T08:28:59.218Z,65
2017-05-04T08:30:08.208Z,65
2017-05-04T08:31:17.895Z,60
2017-05-04T08:32:26.865Z,60
2017-05-04T08:33:35.993Z,60
2017-05-04T08:34:44.948Z,60
2017-05-04T08:35:53.991Z,50
2017-05-04T08:37:03.249Z,55
2017-05-04T08:38:12.332Z,65
2017-05-04T08:39:21.618Z,60
2017-05-04T08:40:30.676Z,60
2017-05-04T08:41:39.758Z,65
2017-05-04T08:42:49.099Z,50
2017-05-04T08:43:58.055Z,60
2017-05-04T08:45:07.005Z,60
2017-05-04T08:46:16.037Z,45
2017-05-04T08:47:25.043Z,55
2017-05-04T08:48:34.482Z,60
2017-05-04T08:49:43.541Z,50
2017-05-04T08:50:52.549Z,45
2017-05-04T08:52:01.502Z,60
2017-05-04T08:53:10.453Z,65
2017-05-04T08:54:20.542Z,60
2017-05-04T08:55:29.497Z,55
2017-05-04T08:56:38.868Z,55
2017-05-04T08:57:47.825Z,50
2017-05-04T08:58:56.783Z,55
2017-05-04T09:00:06.132Z,60
2017-05-04T09:01:15.081Z,70
2017-05-04T09:02:24.207Z,75
2017-05-04T09:03:33.257Z,60
2017-05-04T09:04:42.210Z,65
2017-05-04T09:05:51.468Z,60
2017-05-04T09:07:00.438Z,60
2017-05-04T09:08:09.403Z,65
2017-05-04T09:09:18.358Z,50
2017-05-04T09:10:27.309Z,60
2017-05-04T09:11:36.559Z,55
2017-05-04T09:12:45.517Z,60
2017-05-04T09:13:54.470Z,55
2017-05-04T09:15:03.510Z,65
2017-05-04T09:16:12.462Z,60
2017-05-04T09:17:21.669Z,55
2017-05-04T09:18:30.628Z,55
2017-05-04T09:19:39.584Z,65
2017-05-04T09:20:48.537Z,70
2017-05-04T09:21:57.814Z,70
2017-05-04T09:23:07.014Z,80
2017-05-04T09:24:15.968Z,85
2017-05-04T09:25:25.036Z,95
2017-05-04T09:26:33.989Z,95
2017-05-04T09:27:43.045Z,80
2017-05-04T09:28:52.306Z,70
2017-05-04T09:30:01.258Z,65
2017-05-04T09:31:10.208Z,75
2017-05-04T09:32:19.159Z,85
2017-05-04T09:33:28.126Z,80
2017-05-04T09:34:37.381Z,60
2017-05-04T09:35:46.337Z,85
2017-05-04T09:36:55.316Z,85
2017-05-04T09:38:04.267Z,85
2017-05-04T09:39:13.226Z,85
2017-05-04T09:40:22.432Z,85
2017-05-04T09:41:31.383Z,80
2017-05-04T09:42:40.654Z,80
2017-05-04T09:43:49.606Z,75
2017-05-04T09:44:58.566Z,75
2017-05-04T09:46:07.819Z,60
2017-05-04T09:47:16.775Z,75
2017-05-04T09:48:25.725Z,60
2017-05-04T09:49:34.676Z,50
2017-05-04T09:50:43.626Z,60
2017-05-04T09:51:52.879Z,70
2017-05-04T09:53:01.829Z,75
2017-05-04T09:54:10.782Z,55
2017-05-04T09:55:19.744Z,55
2017-05-04T09:56:28.698Z,65
2017-05-04T09:57:37.953Z,70
2017-05-04T09:58:46.987Z,70
2017-05-04T09:59:55.944Z,55
2017-05-04T10:01:04.900Z,50
2017-05-04T10:02:13.851Z,65
2017-05-04T10:03:23.114Z,70
2017-05-04T10:04:32.074Z,80
2017-05-04T10:05:41.034Z,70
2017-05-04T10:06:50.247Z,70
2017-05-04T10:07:59.334Z,55
2017-05-04T10:09:08.603Z,70
2017-05-04T10:10:17.577Z,65
2017-05-04T10:11:26.528Z,75
2017-05-04T10:12:35.488Z,70
2017-05-04T10:13:45.205Z,80
2017-05-04T10:14:54.627Z,65
2017-05-04T10:16:03.683Z,65
2017-05-04T10:17:12.716Z,55
2017-05-04T10:18:21.690Z,55
2017-05-04T10:19:30.654Z,75
2017-05-04T10:20:40.239Z,60
2017-05-04T10:21:49.414Z,55
2017-05-04T10:22:58.475Z,50
2017-05-04T10:24:07.428Z,40
2017-05-04T10:25:16.383Z,35
2017-05-04T10:26:25.637Z,35
2017-05-04T10:27:34.764Z,35
2017-05-04T10:28:43.719Z,35
2017-05-04T10:29:52.670Z,35
2017-05-04T10:31:01.622Z,35
2017-05-04T10:32:11.623Z,30
2017-05-04T10:33:20.995Z,30
2017-05-04T10:34:30.358Z,40
2017-05-04T10:35:39.406Z,45
2017-05-04T10:36:48.484Z,55
2017-05-04T10:37:57.983Z,50
2017-05-04T10:39:07.073Z,50
2017-05-04T10:40:16.163Z,45
2017-05-04T10:41:25.219Z,50
2017-05-04T10:42:34.217Z,45
2017-05-04T10:43:43.561Z,50
2017-05-04T10:44:52.727Z,55
2017-05-04T10:46:01.788Z,60
2017-05-04T10:47:10.761Z,60
2017-05-04T10:48:19.718Z,65
2017-05-04T10:49:29.107Z,65
2017-05-04T10:50:38.064Z,70
2017-05-04T10:51:47.126Z,70
2017-05-04T10:52:56.191Z,70
2017-05-04T10:54:05.168Z,75
2017-05-04T10:55:14.536Z,70
2017-05-04T10:56:23.604Z,70
2017-05-04T10:57:32.578Z,65
2017-05-04T10:58:41.569Z,50
2017-05-04T10:59:50.559Z,50
2017-05-04T11:00:59.843Z,45
2017-05-04T11:02:08.817Z,45
2017-05-04T11:03:17.791Z,55
2017-05-04T11:04:26.769Z,50
2017-05-04T11:05:35.746Z,40
2017-05-04T11:06:45.034Z,40
2017-05-04T11:07:54.024Z,50
2017-05-04T11:09:03.004Z,45
2017-05-04T11:10:11.976Z,40
2017-05-04T11:11:20.948Z,40
2017-05-04T11:12:30.226Z,45
2017-05-04T11:13:39.203Z,40
2017-05-04T11:14:48.191Z,45
2017-05-04T11:15:57.166Z,35
2017-05-04T11:17:06.138Z,45
2017-05-04T11:18:15.423Z,35
2017-05-04T11:19:24.393Z,45
2017-05-04T11:20:33.365Z,50
2017-05-04T11:21:42.426Z,60
2017-05-04T11:22:51.390Z,45
2017-05-04T11:24:00.711Z,50
2017-05-04T11:25:09.688Z,45
2017-05-04T11:26:18.661Z,45
2017-05-04T11:27:27.628Z,50
2017-05-04T11:28:36.609Z,55
2017-05-04T11:29:45.971Z,55
2017-05-04T11:30:54.923Z,60
2017-05-04T11:32:03.873Z,55
2017-05-04T11:33:12.823Z,45
2017-05-04T11:34:21.777Z,45
2017-05-04T11:35:31.032Z,55
2017-05-04T11:36:39.985Z,55
2017-05-04T11:37:48.949Z,50
2017-05-04T11:38:57.906Z,65
2017-05-04T11:40:06.965Z,60
2017-05-04T11:41:16.222Z,50
2017-05-04T11:42:25.263Z,55
2017-05-04T11:43:34.217Z,50
2017-05-04T11:44:43.169Z,55
2017-05-04T11:45:53.171Z,50
2017-05-04T11:47:02.421Z,55
2017-05-04T11:48:11.378Z,50
2017-05-04T11:49:20.332Z,55
2017-05-04T11:50:29.282Z,50
2017-05-04T11:51:38.237Z,50
2017-05-04T11:52:47.437Z,60
2017-05-04T11:53:56.394Z,55
2017-05-04T11:55:05.433Z,55
2017-05-04T11:56:14.386Z,50
2017-05-04T11:57:23.341Z,55
2017-05-04T11:58:32.553Z,65
2017-05-04T11:59:41.508Z,65
2017-05-04T12:00:50.460Z,50
2017-05-04T12:01:59.412Z,50
2017-05-04T12:03:08.366Z,50
2017-05-04T12:04:17.617Z,45
2017-05-04T12:05:26.567Z,45
2017-05-04T12:06:35.522Z,55
2017-05-04T12:07:44.562Z,60
2017-05-04T12:08:53.517Z,45
2017-05-04T12:10:02.863Z,50
2017-05-04T12:11:11.820Z,45
2017-05-04T12:12:20.772Z,45
2017-05-04T12:13:29.722Z,50
2017-05-04T12:14:38.676Z,45
2017-05-04T12:15:47.962Z,45
2017-05-04T12:16:56.936Z,60
2017-05-04T12:18:05.896Z,45
2017-05-04T12:19:14.850Z,40
2017-05-04T12:20:23.892Z,45
2017-05-04T12:21:33.229Z,45
2017-05-04T12:22:42.266Z,45
2017-05-04T12:23:51.218Z,35
2017-05-04T12:25:00.176Z,40
2017-05-04T12:26:09.128Z,50
2017-05-04T12:27:18.386Z,50
2017-05-04T12:28:27.522Z,35
2017-05-04T12:29:36.864Z,40
2017-05-04T12:30:45.963Z,45
2017-05-04T12:31:55.052Z,35
2017-05-04T12:33:04.455Z,35
2017-05-04T12:34:13.714Z,35
2017-05-04T12:35:23.036Z,35
2017-05-04T12:36:32.068Z,40
2017-05-04T12:37:41.199Z,35
2017-05-04T12:38:50.521Z,30
2017-05-04T12:39:59.755Z,30
2017-05-04T12:41:08.831Z,35
2017-05-04T12:42:17.858Z,25
2017-05-04T12:43:27.063Z,30
2017-05-04T12:44:36.445Z,25
2017-05-04T12:45:45.505Z,30
2017-05-04T12:46:54.579Z,25
2017-05-04T12:48:03.693Z,25
2017-05-04T12:49:12.649Z,25
2017-05-04T12:50:22.184Z,25
2017-05-04T12:51:31.215Z,30
2017-05-04T12:52:40.172Z,30
2017-05-04T12:53:49.125Z,35
2017-05-04T12:54:58.178Z,30
2017-05-04T12:56:07.381Z,35
2017-05-04T12:57:16.335Z,35
2017-05-04T12:58:25.721Z,35
2017-05-04T12:59:34.680Z,45
2017-05-04T13:00:43.633Z,50
2017-05-04T13:01:52.887Z,45
2017-05-04T13:03:01.842Z,45
2017-05-04T13:04:10.796Z,50
2017-05-04T13:05:19.751Z,50
2017-05-04T13:06:28.710Z,50
2017-05-04T13:07:37.973Z,45
2017-05-04T13:08:46.934Z,40
2017-05-04T13:09:55.887Z,45
2017-05-04T13:11:04.873Z,40
2017-05-04T13:12:13.821Z,40
2017-05-04T13:13:23.073Z,35
2017-05-04T13:14:32.025Z,35
2017-05-04T13:15:40.977Z,40
2017-05-04T13:16:50.026Z,40
2017-05-04T13:17:58.984Z,35
2017-05-04T13:19:08.187Z,45
2017-05-04T13:20:17.227Z,45
2017-05-04T13:21:26.174Z,45
2017-05-04T13:22:35.120Z,35
2017-05-04T13:23:44.163Z,35
2017-05-04T13:24:53.457Z,35
2017-05-04T13:26:02.416Z,35
2017-05-04T13:27:11.372Z,35
2017-05-04T13:28:20.320Z,30
2017-05-04T13:29:29.282Z,35
2017-05-04T13:30:38.537Z,35
2017-05-04T13:31:47.492Z,30
2017-05-04T13:32:56.763Z,25
2017-05-04T13:34:05.721Z,25
2017-05-04T13:35:14.675Z,25
2017-05-04T13:36:23.929Z,25
2017-05-04T13:37:33.211Z,25
2017-05-04T13:38:42.164Z,25
2017-05-04T13:39:51.113Z,25
2017-05-04T13:41:00.076Z,25
2017-05-04T13:42:09.282Z,25
2017-05-04T13:43:18.321Z,25
2017-05-04T13:44:27.274Z,25
2017-05-04T13:45:36.562Z,25
2017-05-04T13:46:45.514Z,25
2017-05-04T13:47:54.858Z,25
2017-05-04T13:49:03.813Z,25
2017-05-04T13:50:12.764Z,25
2017-05-04T13:51:21.715Z,25
2017-05-04T13:52:30.668Z,25
2017-05-04T13:53:39.920Z,25
2017-05-04T13:54:48.872Z,25
2017-05-04T13:55:57.923Z,20
2017-05-04T13:57:06.876Z,25
2017-05-04T13:58:15.832Z,25
2017-05-04T13:59:25.084Z,20
2017-05-04T14:00:34.045Z,25
2017-05-04T14:01:43.323Z,25
2017-05-04T14:02:52.277Z,25
2017-05-04T14:04:01.637Z,25
2017-05-04T14:05:10.893Z,20
2017-05-04T14:06:19.846Z,25
2017-05-04T14:07:29.210Z,25
2017-05-04T14:08:38.169Z,25
2017-05-04T14:09:47.133Z,20
2017-05-04T14:10:56.420Z,20
2017-05-04T14:12:05.371Z,20
2017-05-04T14:13:14.325Z,15
2017-05-04T14:14:23.603Z,15
2017-05-04T14:15:32.556Z,15
2017-05-04T14:16:41.812Z,15
2017-05-04T14:17:50.767Z,15
2017-05-04T14:18:59.717Z,15
2017-05-04T14:20:08.675Z,15
2017-05-04T14:21:17.628Z,20
2017-05-04T14:22:27.060Z,25
2017-05-04T14:23:36.336Z,25
2017-05-04T14:24:45.374Z,25
2017-05-04T14:25:54.325Z,20
2017-05-04T14:27:03.285Z,25
2017-05-04T14:28:12.537Z,20
2017-05-04T14:29:21.490Z,20
2017-05-04T14:30:30.537Z,30
2017-05-04T14:31:39.496Z,20
2017-05-04T14:32:48.462Z,20
2017-05-04T14:33:58.050Z,25
2017-05-04T14:35:07.017Z,25
2017-05-04T14:36:15.969Z,25
2017-05-04T14:37:24.943Z,25
2017-05-04T14:38:33.895Z,25
2017-05-04T14:39:43.158Z,25
2017-05-04T14:40:52.117Z,25
2017-05-04T14:42:01.064Z,25
2017-05-04T14:43:10.111Z,20
2017-05-04T14:44:19.173Z,25
2017-05-04T14:45:28.456Z,20
2017-05-04T14:46:37.437Z,25
2017-05-04T14:47:46.418Z,20
2017-05-04T14:48:55.394Z,20
2017-05-04T14:50:04.800Z,25
2017-05-04T14:51:14.079Z,25
2017-05-04T14:52:23.143Z,25
2017-05-04T14:53:32.117Z,25
2017-05-04T14:54:41.090Z,25
2017-05-04T14:55:50.090Z,25
2017-05-04T14:56:59.450Z,20
2017-05-04T14:58:11.039Z,20
2017-05-04T14:59:22.687Z,20
2017-05-04T15:00:31.926Z,20
2017-05-04T15:01:40.905Z,20
2017-05-04T15:02:50.125Z,20
2017-05-04T15:03:59.102Z,15
2017-05-04T15:05:08.087Z,15
2017-05-04T15:06:17.062Z,15
2017-05-04T15:07:26.044Z,15
2017-05-04T15:08:35.270Z,15
2017-05-04T15:09:44.332Z,20
2017-05-04T15:10:53.308Z,20
2017-05-04T15:12:02.290Z,20
2017-05-04T15:13:11.356Z,20
2017-05-04T15:14:20.584Z,20
2017-05-04T15:15:29.557Z,20
2017-05-04T15:16:38.535Z,20
2017-05-04T15:17:47.514Z,20
2017-05-04T15:18:56.494Z,20
2017-05-04T15:20:05.717Z,20
2017-05-04T15:21:14.697Z,20
2017-05-04T15:22:23.672Z,25
2017-05-04T15:23:32.689Z,20
2017-05-04T15:24:41.669Z,20
2017-05-04T15:25:51.036Z,25
2017-05-04T15:27:00.103Z,20
2017-05-04T15:28:09.079Z,20
2017-05-04T15:29:18.033Z,20
2017-05-04T15:30:27.010Z,20
2017-05-04T15:31:36.214Z,20
2017-05-04T15:32:45.166Z,20
2017-05-04T15:33:54.126Z,25
2017-05-04T15:35:03.413Z,25
2017-05-04T15:36:12.381Z,25
2017-05-04T15:37:21.599Z,25
2017-05-04T15:38:30.584Z,20
2017-05-04T15:39:39.642Z,15
2017-05-04T15:40:48.795Z,15
2017-05-04T15:41:57.765Z,15
2017-05-04T15:43:07.039Z,15
2017-05-04T15:44:16.024Z,15
2017-05-04T15:45:24.995Z,15
2017-05-04T15:46:33.974Z,15
2017-05-04T15:47:43.280Z,15
2017-05-04T15:48:52.606Z,20
2017-05-04T15:50:01.667Z,20
2017-05-04T15:51:10.654Z,20
2017-05-04T15:52:19.658Z,20
2017-05-04T15:53:28.635Z,15
2017-05-04T15:54:37.861Z,15
2017-05-04T15:55:46.834Z,15
2017-05-04T15:56:55.810Z,15
2017-05-04T15:58:04.791Z,15
2017-05-04T15:59:13.769Z,15
2017-05-04T16:00:23.045Z,20
2017-05-04T16:01:32.043Z,20
2017-05-04T16:02:41.112Z,20
2017-05-04T16:03:50.095Z,25
2017-05-04T16:04:59.073Z,25
2017-05-04T16:06:08.438Z,30
2017-05-04T16:07:17.417Z,30
2017-05-04T16:08:26.386Z,25
2017-05-04T16:09:35.363Z,25
2017-05-04T16:10:44.423Z,25
2017-05-04T16:11:53.707Z,20
2017-05-04T16:13:02.758Z,15
2017-05-04T16:14:11.738Z,15
2017-05-04T16:15:20.718Z,10
2017-05-04T16:16:29.703Z,10
2017-05-04T16:17:38.982Z,10
2017-05-04T16:18:47.959Z,10
2017-05-04T16:19:56.933Z,10
2017-05-04T16:21:05.902Z,15
2017-05-04T16:22:14.875Z,15
2017-05-04T16:23:24.150Z,10
2017-05-04T16:24:33.123Z,15
2017-05-04T16:25:42.095Z,10
2017-05-04T16:26:51.076Z,15
2017-05-04T16:28:00.057Z,10
2017-05-04T16:29:09.341Z,10
2017-05-04T16:30:18.316Z,15
2017-05-04T16:31:27.294Z,15
2017-05-04T16:32:36.780Z,15
2017-05-04T16:33:45.752Z,15
2017-05-04T16:34:54.981Z,10